Wichita, KS (67209)

12:59 AM CDT on September 16, 2014 (GMT -0500)
Near the airport | Change Station
CLOSE
Current Station
Personal Weather Station
Location: Wichita, KS
Elevation: 1348 ft
Nearby Weather Stations
4.0 Earthquake: Guthrie, Oklahoma (9 hours ago)  

Elev 1348 ft 37.65 °N, 97.44 °W | Updated 18 minutes ago

Mostly Cloudy
Mostly Cloudy
63.0 °F
Feels Like 63.0 °F
N
11.0
Wind Variable Wind from NE
Gusts 15.0 mph

Today
High -- | Low -- °F
--% Chance of Precip.
Yesterday
High -- | Low -- °F
Precip. -- in
7:12 AM 7:35 PM
Waning Gibbous, 48% visible
Pressure 30.19 in
Visibility 10.0 miles
Clouds Mostly Cloudy 6000 ft
Mostly Cloudy 9000 ft
Dew Point 55 °F
Humidity 76%
Rainfall -9999.00 in
Snow Depth Not available.
UV 0 out of 12
Pollen 7.10 out of 12
Air Quality Not available.
Flu Activity Not available.
METAR KICT 160553Z 05011KT 10SM BKN060 BKN090 18/12 A3022 RMK AO2 SLP221 T01780122 10222 20178 403000178 51005

More Conditions Fewer Conditions

Pressure 30.19 in
Visibility 10.0 miles
Clouds Mostly Cloudy 6000 ft
Mostly Cloudy 9000 ft
Dew Point 55 °F
Humidity 76%
Rainfall -9999.00 in
Snow Depth Not available.
UV 0 out of 12
Pollen 7.10 out of 12
Air Quality Not available.
Flu Activity Not available.
METAR KICT 160553Z 05011KT 10SM BKN060 BKN090 18/12 A3022 RMK AO2 SLP221 T01780122 10222 20178 403000178 51005

More Conditions Fewer Conditions

10-Day Weather Forecast

Almanac

Astronomy

Sep. 16, 2014 Rise Set
Actual Time 7:12 AM CDT 7:35 PM CDT
Civil Twilight 6:46 AM CDT 8:02 PM CDT
Nautical Twilight 6:15 AM CDT 8:32 PM CDT
Astronomical Twilight 5:43 AM CDT 9:04 PM CDT
Moon 12:28 AM CDT 2:55 PM CDT
Length of Visible Light 13h 15m
Length of Day
12h 23m
Tomorrow will be 2m 23s shorter.
Waning Gibbous, 48% of the Moon is Illuminated
Today
Waning Gibbous
Sep 24
New
Oct 1
First Quarter
Oct 8
Full
Oct 15
Last Quarter

Today's Extremes

State Highs State Lows

Community

WunderPhotos

Upload Photos

1,753,702 photos uploaded!

Nearby

Snow Depth

Station Depth Elevation
No new snow has been reported.

Earthquake Activity

City Distance Mag. Time & Date
Guthrie, Oklahoma 127 miles 2.7 4:00 PM CDT
2014-09-15
Guthrie, Oklahoma 127 miles 3.2 3:14 PM CDT
2014-09-15
Guthrie, Oklahoma 127 miles 4.0 3:08 PM CDT
2014-09-15
Enid, Oklahoma 77 miles 3.1 8:27 AM CDT
2014-09-15
Minimum magnitude displayed is 2.5.

Coastal Water Temperatures

Place Temperature
No Stations Reporting

Nearby Weather Stations